createdAt,value
2022-09-06T00:00:30.814Z,46.33
2022-09-06T00:02:59.298Z,45.98
2022-09-06T00:05:27.386Z,46.32
2022-09-06T00:07:55.578Z,46.44
2022-09-06T00:10:23.377Z,47.03
2022-09-06T00:12:51.241Z,47.55
2022-09-06T00:15:19.665Z,47.86
2022-09-06T00:17:49.427Z,48.28
2022-09-06T00:20:17.648Z,46.79
2022-09-06T00:22:45.473Z,47.24
2022-09-06T00:25:13.297Z,47.63
2022-09-06T00:27:41.098Z,47.69
2022-09-06T00:30:11.277Z,47.95
2022-09-06T00:32:39.080Z,48.21
2022-09-06T00:35:08.663Z,48.20
2022-09-06T00:37:36.471Z,48.19
2022-09-06T00:40:04.994Z,48.46
2022-09-06T00:42:32.938Z,48.70
2022-09-06T00:45:01.480Z,48.68
2022-09-06T00:47:30.695Z,48.30
2022-09-06T00:50:01.201Z,48.38
2022-09-06T00:52:33.081Z,47.98
2022-09-06T00:55:01.283Z,47.80
2022-09-06T00:57:32.132Z,48.41
2022-09-06T01:00:03.200Z,48.64
2022-09-06T01:02:31.440Z,48.94
2022-09-06T01:04:59.857Z,48.99
2022-09-06T01:07:48.236Z,48.64
2022-09-06T01:10:54.977Z,48.21
2022-09-06T01:13:37.869Z,49.06
2022-09-06T01:16:17.449Z,49.88
2022-09-06T01:19:15.772Z,50.34
2022-09-06T01:21:56.484Z,49.55
2022-09-06T01:25:05.152Z,50.06
2022-09-06T01:28:03.755Z,50.15
2022-09-06T01:30:39.066Z,49.64
2022-09-06T01:33:17.611Z,50.03
2022-09-06T01:35:53.106Z,49.50
2022-09-06T01:38:21.317Z,49.38
2022-09-06T01:40:49.221Z,49.82
2022-09-06T01:43:27.101Z,49.18
2022-09-06T01:46:03.397Z,49.79
2022-09-06T01:48:52.807Z,49.75
2022-09-06T01:51:32.403Z,49.62
2022-09-06T01:54:36.268Z,49.71
2022-09-06T01:57:23.581Z,49.96
2022-09-06T02:00:09.715Z,50.48
2022-09-06T02:02:54.526Z,49.86
2022-09-06T02:05:33.077Z,50.39
2022-09-06T02:08:11.803Z,50.79
2022-09-06T02:10:47.249Z,49.86
2022-09-06T02:13:18.588Z,50.49
2022-09-06T02:15:56.577Z,50.42
2022-09-06T02:18:30.764Z,49.80
2022-09-06T02:21:02.709Z,50.39
2022-09-06T02:23:36.649Z,51.59
2022-09-06T02:26:10.817Z,51.11
2022-09-06T02:28:38.906Z,52.55
2022-09-06T02:31:17.558Z,51.24
2022-09-06T02:33:48.465Z,51.75
2022-09-06T02:36:16.629Z,52.31
2022-09-06T02:38:47.044Z,52.54
2022-09-06T02:41:22.549Z,51.71
2022-09-06T02:43:50.932Z,50.59
2022-09-06T02:46:20.240Z,52.15
2022-09-06T02:48:48.127Z,52.79
2022-09-06T02:51:16.008Z,53.47
2022-09-06T02:53:44.380Z,53.11
2022-09-06T02:56:12.663Z,53.79
2022-09-06T02:58:40.659Z,53.52
2022-09-06T03:01:09.104Z,54.12
2022-09-06T03:03:38.350Z,52.57
2022-09-06T03:06:06.686Z,53.93
2022-09-06T03:08:36.420Z,53.35
2022-09-06T03:11:08.912Z,55.51
2022-09-06T03:13:39.646Z,56.11
2022-09-06T03:16:16.394Z,55.69
2022-09-06T03:18:54.127Z,55.24
2022-09-06T03:21:28.537Z,55.98
2022-09-06T03:24:06.263Z,56.31
2022-09-06T03:26:37.988Z,55.72
2022-09-06T03:29:09.192Z,56.00
2022-09-06T03:31:39.690Z,56.70
2022-09-06T03:34:18.106Z,57.50
2022-09-06T03:36:48.679Z,56.17
2022-09-06T03:39:19.182Z,57.43
2022-09-06T03:41:48.341Z,56.51
2022-09-06T03:44:25.050Z,55.01
2022-09-06T03:46:55.970Z,56.75
2022-09-06T03:49:26.517Z,55.07
2022-09-06T03:52:04.520Z,54.33
2022-09-06T03:54:34.828Z,56.18
2022-09-06T03:57:09.878Z,55.36
2022-09-06T03:59:41.176Z,57.06
2022-09-06T04:02:24.412Z,56.97
2022-09-06T04:05:05.628Z,55.87
2022-09-06T04:07:35.146Z,56.95
2022-09-06T04:10:10.462Z,56.49
2022-09-06T04:12:39.653Z,55.68
2022-09-06T04:15:10.984Z,55.56
2022-09-06T04:17:42.264Z,57.42
2022-09-06T04:20:21.000Z,57.63
2022-09-06T04:22:50.324Z,57.18
2022-09-06T04:25:21.221Z,57.75
2022-09-06T04:27:52.050Z,58.55
2022-09-06T04:30:19.853Z,57.83
2022-09-06T04:32:47.690Z,57.66
2022-09-06T04:35:17.021Z,57.95
2022-09-06T04:37:44.832Z,58.70
2022-09-06T04:40:13.430Z,58.75
2022-09-06T04:42:41.258Z,57.95
2022-09-06T04:45:10.658Z,58.06
2022-09-06T04:47:38.746Z,57.27
2022-09-06T04:50:07.677Z,57.47
2022-09-06T04:52:36.791Z,57.38
2022-09-06T04:55:05.974Z,57.23
2022-09-06T04:57:33.975Z,57.41
2022-09-06T05:00:04.579Z,57.88
2022-09-06T05:02:32.422Z,57.49
2022-09-06T05:05:00.233Z,57.91
2022-09-06T05:07:28.047Z,58.19
2022-09-06T05:10:00.068Z,57.33
2022-09-06T05:12:27.906Z,58.36
2022-09-06T05:14:55.738Z,57.02
2022-09-06T05:17:23.554Z,56.52
2022-09-06T05:19:51.393Z,56.80
2022-09-06T05:22:19.444Z,58.56
2022-09-06T05:24:47.353Z,59.09
2022-09-06T05:27:16.548Z,57.99
2022-09-06T05:29:44.400Z,58.01
2022-09-06T05:32:12.221Z,57.23
2022-09-06T05:34:40.414Z,57.88
2022-09-06T05:37:08.238Z,57.75
2022-09-06T05:39:36.117Z,57.13
2022-09-06T05:42:06.590Z,58.14
2022-09-06T05:44:36.040Z,55.53
2022-09-06T05:47:05.025Z,57.11
2022-09-06T05:49:33.462Z,56.64
2022-09-06T05:52:01.378Z,55.47
2022-09-06T05:54:29.245Z,56.85
2022-09-06T05:56:57.068Z,55.72
2022-09-06T05:59:24.869Z,56.18
2022-09-06T06:01:55.179Z,55.41
2022-09-06T06:04:23.389Z,55.31
2022-09-06T06:06:51.611Z,54.55
2022-09-06T06:09:19.463Z,55.06
2022-09-06T06:11:47.287Z,57.01
2022-09-06T06:14:15.108Z,55.54
2022-09-06T06:16:42.962Z,56.47
2022-09-06T06:19:12.466Z,57.35
2022-09-06T06:21:40.301Z,56.64
2022-09-06T06:24:08.793Z,56.35
2022-09-06T06:26:37.794Z,55.46
2022-09-06T06:29:09.523Z,56.04
2022-09-06T06:31:39.754Z,56.02
2022-09-06T06:34:08.368Z,55.99
2022-09-06T06:36:38.344Z,54.67
2022-09-06T06:39:08.881Z,56.39
2022-09-06T06:41:37.714Z,56.21
2022-09-06T06:44:07.132Z,54.69
2022-09-06T06:46:37.637Z,54.60
2022-09-06T06:49:06.334Z,54.12
2022-09-06T06:51:37.865Z,53.58
2022-09-06T06:54:07.065Z,54.26
2022-09-06T06:56:37.727Z,53.71
2022-09-06T06:59:08.094Z,55.99
2022-09-06T07:01:37.419Z,55.81
2022-09-06T07:04:07.144Z,55.75
2022-09-06T07:12:27.204Z,52.65
2022-09-06T07:14:55.581Z,53.25
2022-09-06T07:17:23.765Z,54.36
2022-09-06T07:22:41.767Z,54.73
2022-09-06T07:25:15.312Z,54.26
2022-09-06T07:30:19.915Z,53.77
2022-09-06T07:32:48.173Z,56.01
2022-09-06T07:35:16.248Z,55.55
2022-09-06T07:37:52.916Z,54.33
2022-09-06T07:40:20.997Z,54.39
2022-09-06T07:42:49.102Z,55.54
2022-09-06T07:45:17.508Z,56.14
2022-09-06T07:48:00.873Z,54.86
2022-09-06T07:50:47.706Z,54.54
2022-09-06T07:53:27.770Z,55.19
2022-09-06T07:56:00.069Z,54.10
2022-09-06T07:58:28.636Z,55.46
2022-09-06T08:01:15.033Z,55.37
2022-09-06T08:03:43.192Z,56.32
2022-09-06T08:06:11.232Z,57.52
2022-09-06T08:11:28.324Z,58.62
2022-09-06T08:13:57.734Z,58.23
2022-09-06T08:16:28.751Z,56.43
2022-09-06T08:18:58.906Z,56.36
2022-09-06T08:21:29.686Z,56.18
2022-09-06T08:24:01.378Z,55.50
2022-09-06T08:26:31.614Z,55.99
2022-09-06T08:29:01.776Z,56.04
2022-09-06T08:31:32.420Z,56.52
2022-09-06T08:34:01.926Z,55.85
2022-09-06T08:36:31.234Z,56.98
2022-09-06T08:39:02.308Z,58.15
2022-09-06T08:41:37.143Z,57.40
2022-09-06T08:47:01.747Z,57.37
2022-09-06T08:49:34.849Z,57.70
2022-09-06T08:52:25.113Z,57.10
2022-09-06T08:55:13.920Z,57.41
2022-09-06T08:58:05.877Z,57.75
2022-09-06T09:00:36.764Z,55.29
2022-09-06T09:03:17.029Z,54.54
2022-09-06T09:05:52.914Z,53.67
2022-09-06T09:08:27.931Z,53.69
2022-09-06T09:11:04.138Z,54.43
2022-09-06T09:13:40.212Z,54.80
2022-09-06T09:16:08.718Z,55.77
2022-09-06T09:18:41.282Z,54.58
2022-09-06T09:21:11.193Z,53.54
2022-09-06T09:23:39.029Z,54.19
2022-09-06T09:26:15.163Z,54.10
2022-09-06T09:29:08.914Z,55.53
2022-09-06T09:31:40.529Z,54.76
2022-09-06T09:34:13.840Z,55.32
2022-09-06T09:39:37.227Z,55.26
2022-09-06T09:42:08.157Z,54.84
2022-09-06T09:44:43.186Z,55.61
2022-09-06T09:47:28.413Z,54.48
2022-09-06T09:49:58.068Z,55.50
2022-09-06T09:52:29.244Z,56.10
2022-09-06T09:55:00.982Z,54.43
2022-09-06T09:57:43.856Z,54.63
2022-09-06T10:00:13.992Z,53.52
2022-09-06T10:02:43.490Z,54.65
2022-09-06T10:05:21.717Z,53.68
2022-09-06T10:07:53.418Z,54.07
2022-09-06T10:10:24.702Z,54.42
2022-09-06T10:13:21.961Z,53.38
2022-09-06T10:15:52.912Z,54.57
2022-09-06T10:18:33.015Z,52.95
2022-09-06T10:21:04.152Z,52.97
2022-09-06T10:26:52.007Z,52.08
2022-09-06T10:29:35.932Z,53.27
2022-09-06T10:32:30.929Z,52.50
2022-09-06T10:35:15.902Z,51.69
2022-09-06T10:37:55.469Z,52.04
2022-09-06T10:40:34.734Z,51.87
2022-09-06T10:43:05.841Z,52.76
2022-09-06T10:45:46.676Z,52.15
2022-09-06T10:48:24.924Z,51.80
2022-09-06T10:50:58.272Z,50.85
2022-09-06T10:53:45.203Z,50.51
2022-09-06T10:56:21.739Z,50.40
2022-09-06T11:02:09.705Z,51.74
2022-09-06T11:07:32.671Z,51.19
2022-09-06T11:10:08.676Z,50.87
2022-09-06T11:12:45.194Z,51.43
2022-09-06T11:15:17.073Z,51.13
2022-09-06T11:17:53.864Z,51.01
2022-09-06T11:20:32.101Z,51.67
2022-09-06T11:23:30.703Z,50.95
2022-09-06T11:26:32.208Z,49.70
2022-09-06T11:29:03.394Z,49.88
2022-09-06T11:34:28.709Z,51.04
2022-09-06T11:36:59.706Z,51.31
2022-09-06T11:43:03.738Z,49.92
2022-09-06T11:45:44.704Z,49.07
2022-09-06T11:49:05.277Z,49.69
2022-09-06T11:51:38.533Z,49.01
2022-09-06T11:54:30.001Z,49.95
2022-09-06T11:57:03.488Z,50.16
2022-09-06T11:59:55.725Z,50.23
2022-09-06T12:02:35.023Z,50.17
2022-09-06T12:05:25.590Z,49.02
2022-09-06T12:08:31.853Z,49.66
2022-09-06T12:11:29.024Z,48.43
2022-09-06T12:14:03.452Z,49.22
2022-09-06T12:17:27.137Z,48.48
2022-09-06T12:20:03.685Z,48.94
2022-09-06T12:23:04.756Z,48.49
2022-09-06T12:25:59.549Z,49.11
2022-09-06T12:28:36.164Z,49.80
2022-09-06T12:31:29.292Z,49.41
2022-09-06T12:33:59.374Z,49.10
2022-09-06T12:36:31.361Z,48.46
2022-09-06T12:39:01.860Z,49.93
2022-09-06T12:41:42.963Z,49.69
2022-09-06T12:44:12.330Z,49.57
2022-09-06T12:46:49.834Z,48.61
2022-09-06T12:49:22.312Z,48.62
2022-09-06T12:51:50.872Z,50.89
2022-09-06T12:54:23.754Z,49.74
2022-09-06T12:56:54.061Z,50.44
2022-09-06T12:59:25.036Z,51.11
2022-09-06T13:02:02.367Z,50.26
2022-09-06T13:04:41.562Z,50.49
2022-09-06T13:07:15.789Z,50.19
2022-09-06T13:09:47.520Z,50.11
2022-09-06T13:12:26.498Z,49.13
2022-09-06T13:14:56.592Z,49.20
2022-09-06T13:17:28.462Z,49.16
2022-09-06T13:19:58.125Z,50.44
2022-09-06T13:22:42.809Z,50.63
2022-09-06T13:25:25.933Z,50.30
2022-09-06T13:27:58.485Z,49.27
2022-09-06T13:30:42.003Z,49.58
2022-09-06T13:33:25.460Z,49.86
2022-09-06T13:36:09.515Z,49.60
2022-09-06T13:38:43.114Z,48.54
2022-09-06T13:41:38.912Z,49.25
2022-09-06T13:44:21.358Z,49.60
2022-09-06T13:46:55.178Z,49.02
2022-09-06T13:49:23.755Z,49.49
2022-09-06T13:51:53.255Z,48.91
2022-09-06T13:54:22.627Z,50.08
2022-09-06T13:56:51.258Z,49.53
2022-09-06T13:59:21.154Z,50.53
2022-09-06T14:02:01.015Z,49.63
2022-09-06T14:04:29.195Z,49.63
2022-09-06T14:06:57.500Z,49.96
2022-09-06T14:09:25.409Z,51.15
2022-09-06T14:11:53.264Z,49.35
2022-09-06T14:14:22.559Z,50.53
2022-09-06T14:16:50.375Z,51.27
2022-09-06T14:19:18.437Z,50.14
2022-09-06T14:21:46.390Z,49.58
2022-09-06T14:24:14.509Z,49.74
2022-09-06T14:26:42.325Z,50.28
2022-09-06T14:29:10.228Z,50.45
2022-09-06T14:31:39.896Z,50.90
2022-09-06T14:34:07.888Z,50.20
2022-09-06T14:36:35.821Z,48.93
2022-09-06T14:39:04.786Z,48.12
2022-09-06T14:41:32.965Z,49.89
2022-09-06T14:44:01.284Z,50.17
2022-09-06T14:46:29.996Z,49.56
2022-09-06T14:49:02.124Z,50.28
2022-09-06T14:51:31.319Z,50.00
2022-09-06T14:54:04.740Z,50.58
2022-09-06T14:56:32.595Z,49.80
2022-09-06T14:59:00.742Z,49.44
2022-09-06T15:01:34.358Z,50.22
2022-09-06T15:04:10.173Z,49.75
2022-09-06T15:06:40.624Z,50.01
2022-09-06T15:09:11.232Z,50.69
2022-09-06T15:11:43.576Z,51.41
2022-09-06T15:14:16.754Z,50.98
2022-09-06T15:16:45.631Z,51.40
2022-09-06T15:19:15.525Z,50.69
2022-09-06T15:21:44.082Z,50.51
2022-09-06T15:24:12.525Z,50.93
2022-09-06T15:26:41.159Z,49.72
2022-09-06T15:29:09.695Z,50.61
2022-09-06T15:31:38.391Z,50.45
2022-09-06T15:34:06.662Z,51.87
2022-09-06T15:36:36.554Z,50.89
2022-09-06T15:39:06.928Z,50.27
2022-09-06T15:41:39.160Z,50.42
2022-09-06T15:44:10.483Z,50.05
2022-09-06T15:46:45.399Z,50.25
2022-09-06T15:49:16.925Z,49.56
2022-09-06T15:51:46.610Z,49.73
2022-09-06T15:54:17.429Z,51.41
2022-09-06T15:56:46.190Z,50.79
2022-09-06T15:59:14.018Z,51.75
2022-09-06T16:01:42.062Z,51.92
2022-09-06T16:04:10.739Z,52.48
2022-09-06T16:06:42.551Z,52.00
2022-09-06T16:09:15.036Z,50.89
2022-09-06T16:11:43.584Z,50.33
2022-09-06T16:14:15.378Z,51.26
2022-09-06T16:16:46.120Z,51.07
2022-09-06T16:19:14.463Z,50.52
2022-09-06T16:21:44.622Z,51.28
2022-09-06T16:24:15.505Z,51.25
2022-09-06T16:26:46.271Z,52.22
2022-09-06T16:29:18.262Z,52.21
2022-09-06T16:31:48.821Z,52.46
2022-09-06T16:34:17.309Z,51.50
2022-09-06T16:36:45.264Z,51.07
2022-09-06T16:39:14.647Z,52.10
2022-09-06T16:41:45.791Z,52.71
2022-09-06T16:44:17.363Z,51.59
2022-09-06T16:46:47.426Z,51.21
2022-09-06T16:49:17.392Z,50.27
2022-09-06T16:51:46.260Z,51.21
2022-09-06T16:54:18.323Z,50.79
2022-09-06T16:56:46.395Z,50.75
2022-09-06T16:59:17.040Z,50.43
2022-09-06T17:01:45.626Z,51.08
2022-09-06T17:04:13.905Z,50.26
2022-09-06T17:06:44.413Z,49.90
2022-09-06T17:09:16.022Z,50.17
2022-09-06T17:11:43.912Z,51.29
2022-09-06T17:14:12.180Z,51.89
2022-09-06T17:16:57.930Z,51.57
2022-09-06T17:19:26.488Z,51.31
2022-09-06T17:21:54.726Z,50.98
2022-09-06T17:24:23.940Z,50.74
2022-09-06T17:26:51.848Z,50.47
2022-09-06T17:29:20.435Z,50.45
2022-09-06T17:31:49.494Z,50.70
2022-09-06T17:34:17.654Z,50.90
2022-09-06T17:36:45.900Z,50.70
2022-09-06T17:39:17.691Z,50.96
2022-09-06T17:41:52.245Z,51.05
2022-09-06T17:44:22.322Z,50.77
2022-09-06T17:47:12.000Z,50.84
2022-09-06T17:49:38.183Z,50.40
2022-09-06T17:52:06.029Z,50.89
2022-09-06T17:54:33.895Z,50.29
2022-09-06T17:57:03.040Z,49.72
2022-09-06T17:59:35.121Z,48.99
2022-09-06T18:02:05.432Z,49.27
2022-09-06T18:04:33.721Z,49.69
2022-09-06T18:07:01.607Z,49.60
2022-09-06T18:09:29.652Z,48.67
2022-09-06T18:11:58.376Z,48.40
2022-09-06T18:14:28.568Z,50.38
2022-09-06T18:16:56.729Z,50.32
2022-09-06T18:19:24.787Z,49.59
2022-09-06T18:21:52.619Z,49.83
2022-09-06T18:24:20.424Z,49.82
2022-09-06T18:26:49.114Z,49.63
2022-09-06T18:29:18.405Z,49.07
2022-09-06T18:31:47.660Z,48.63
2022-09-06T18:34:16.618Z,49.13
2022-09-06T18:36:44.457Z,49.21
2022-09-06T18:39:13.170Z,50.46
2022-09-06T18:41:58.753Z,49.18
2022-09-06T18:44:30.230Z,49.52
2022-09-06T18:47:03.181Z,49.13
2022-09-06T18:49:32.492Z,49.30
2022-09-06T18:52:01.100Z,49.38
2022-09-06T18:54:29.588Z,49.39
2022-09-06T18:56:57.952Z,48.84
2022-09-06T18:59:25.795Z,49.24
2022-09-06T19:01:53.736Z,49.43
2022-09-06T19:04:23.466Z,49.66
2022-09-06T19:06:51.287Z,49.83
2022-09-06T19:09:19.301Z,50.28
2022-09-06T19:11:51.295Z,49.80
2022-09-06T19:14:19.401Z,49.54
2022-09-06T19:16:48.681Z,49.10
2022-09-06T19:19:16.580Z,49.38
2022-09-06T19:21:46.106Z,49.95
2022-09-06T19:24:15.558Z,49.72
2022-09-06T19:26:45.228Z,49.50
2022-09-06T19:29:17.359Z,49.52
2022-09-06T19:31:47.030Z,48.84
2022-09-06T19:34:15.861Z,48.92
2022-09-06T19:36:46.239Z,49.21
2022-09-06T19:39:17.086Z,48.88
2022-09-06T19:41:47.801Z,49.50
2022-09-06T19:44:20.657Z,49.72
2022-09-06T19:46:49.301Z,50.76
2022-09-06T19:49:19.145Z,48.92
2022-09-06T19:51:50.818Z,50.94
2022-09-06T19:54:19.622Z,49.46
2022-09-06T19:56:48.678Z,51.71
2022-09-06T19:59:17.696Z,51.42
2022-09-06T20:01:49.869Z,49.58
2022-09-06T20:04:17.982Z,50.23
2022-09-06T20:06:46.031Z,49.65
2022-09-06T20:09:16.450Z,49.63
2022-09-06T20:11:45.048Z,52.91
2022-09-06T20:14:13.404Z,49.66
2022-09-06T20:16:42.907Z,48.09
2022-09-06T20:19:14.547Z,51.38
2022-09-06T20:21:43.192Z,49.90
2022-09-06T20:24:11.125Z,49.20
2022-09-06T20:26:40.412Z,50.30
2022-09-06T20:29:08.981Z,50.62
2022-09-06T20:31:38.538Z,51.46
2022-09-06T20:34:08.229Z,49.58
2022-09-06T20:36:36.723Z,51.95
2022-09-06T20:39:05.200Z,51.95
2022-09-06T20:41:33.753Z,48.75
2022-09-06T20:44:06.378Z,49.33
2022-09-06T20:46:36.010Z,49.37
2022-09-06T20:49:05.105Z,48.45
2022-09-06T20:51:35.551Z,49.56
2022-09-06T20:54:06.237Z,49.63
2022-09-06T20:56:37.317Z,49.01
2022-09-06T20:59:08.835Z,48.87
2022-09-06T21:01:40.600Z,49.46
2022-09-06T21:04:10.546Z,49.97
2022-09-06T21:06:40.010Z,49.97
2022-09-06T21:09:11.713Z,50.27
2022-09-06T21:11:43.228Z,49.52
2022-09-06T21:14:13.813Z,50.41
2022-09-06T21:16:44.249Z,49.69
2022-09-06T21:19:12.995Z,50.06
2022-09-06T21:21:41.670Z,49.40
2022-09-06T21:24:11.611Z,49.22
2022-09-06T21:26:40.878Z,49.31
2022-09-06T21:29:11.478Z,49.22
2022-09-06T21:31:42.410Z,49.20
2022-09-06T21:34:16.808Z,49.49
2022-09-06T21:36:45.622Z,48.88
2022-09-06T21:39:13.953Z,48.84
2022-09-06T21:41:44.306Z,49.04
2022-09-06T21:44:13.027Z,49.30
2022-09-06T21:46:42.978Z,49.64
2022-09-06T21:49:13.817Z,49.67
2022-09-06T21:51:42.423Z,49.02
2022-09-06T21:54:10.455Z,49.02
2022-09-06T21:56:40.059Z,48.67
2022-09-06T21:59:09.160Z,49.39
2022-09-06T22:01:39.490Z,48.88
2022-09-06T22:04:11.413Z,49.60
2022-09-06T22:06:40.549Z,49.25
2022-09-06T22:09:12.130Z,49.61
2022-09-06T22:11:43.006Z,50.35
2022-09-06T22:14:14.583Z,49.86
2022-09-06T22:16:42.982Z,50.74
2022-09-06T22:19:12.782Z,49.93
2022-09-06T22:21:41.237Z,49.42
2022-09-06T22:24:12.590Z,48.63
2022-09-06T22:26:42.042Z,49.55
2022-09-06T22:29:13.446Z,50.20
2022-09-06T22:31:41.439Z,50.50
2022-09-06T22:34:10.333Z,49.68
2022-09-06T22:36:40.020Z,50.17
2022-09-06T22:39:07.850Z,50.41
2022-09-06T22:41:35.777Z,49.78
2022-09-06T22:44:05.217Z,51.03
2022-09-06T22:46:34.046Z,50.16
2022-09-06T22:49:02.481Z,50.39
2022-09-06T22:51:30.328Z,49.72
2022-09-06T22:53:59.462Z,50.72
2022-09-06T22:56:27.290Z,50.42
2022-09-06T22:58:55.141Z,49.94
2022-09-06T23:01:23.015Z,49.11
2022-09-06T23:03:51.602Z,49.26
2022-09-06T23:06:19.520Z,49.78
2022-09-06T23:08:47.438Z,49.63
2022-09-06T23:11:19.618Z,48.36
2022-09-06T23:13:47.624Z,49.06
2022-09-06T23:16:19.409Z,49.88
2022-09-06T23:18:49.204Z,48.50
2022-09-06T23:21:19.386Z,48.91
2022-09-06T23:23:49.889Z,49.43
2022-09-06T23:26:21.702Z,51.10
2022-09-06T23:28:56.301Z,49.78
2022-09-06T23:31:26.782Z,49.16
2022-09-06T23:33:56.887Z,48.27
2022-09-06T23:36:25.555Z,49.45
2022-09-06T23:38:53.657Z,50.21
2022-09-06T23:41:22.923Z,50.22
2022-09-06T23:43:51.040Z,49.13
2022-09-06T23:46:19.341Z,49.04
2022-09-06T23:48:47.443Z,48.98
2022-09-06T23:51:15.532Z,48.43
2022-09-06T23:53:43.397Z,48.90
2022-09-06T23:56:11.590Z,49.00
2022-09-06T23:58:41.106Z,49.37
